sensor_id;sensor_type;location;lat;lon;timestamp;P1;durP1;ratioP1;P2;durP2;ratioP2
59872;SDS011;50750;51.636;4.948;2023-08-06T00:00:58;2.40;;;1.60;;
59872;SDS011;50750;51.636;4.948;2023-08-06T00:03:45;2.70;;;1.70;;
59872;SDS011;50750;51.636;4.948;2023-08-06T00:06:11;2.50;;;1.60;;
59872;SDS011;50750;51.636;4.948;2023-08-06T00:08:37;2.70;;;1.70;;
59872;SDS011;50750;51.636;4.948;2023-08-06T00:11:04;2.10;;;1.30;;
59872;SDS011;50750;51.636;4.948;2023-08-06T00:13:30;2.70;;;1.60;;
59872;SDS011;50750;51.636;4.948;2023-08-06T00:16:07;2.60;;;1.60;;
59872;SDS011;50750;51.636;4.948;2023-08-06T00:18:34;2.60;;;1.50;;
59872;SDS011;50750;51.636;4.948;2023-08-06T00:21:01;2.50;;;1.40;;
59872;SDS011;50750;51.636;4.948;2023-08-06T00:23:27;2.80;;;1.70;;
59872;SDS011;50750;51.636;4.948;2023-08-06T00:25:53;2.70;;;1.70;;
59872;SDS011;50750;51.636;4.948;2023-08-06T00:28:20;2.30;;;1.60;;
59872;SDS011;50750;51.636;4.948;2023-08-06T00:30:46;2.70;;;1.60;;
59872;SDS011;50750;51.636;4.948;2023-08-06T00:33:18;2.00;;;1.40;;
59872;SDS011;50750;51.636;4.948;2023-08-06T00:35:44;2.60;;;1.60;;
59872;SDS011;50750;51.636;4.948;2023-08-06T00:38:10;2.10;;;1.40;;
59872;SDS011;50750;51.636;4.948;2023-08-06T00:40:37;2.40;;;1.50;;
59872;SDS011;50750;51.636;4.948;2023-08-06T00:43:03;2.30;;;1.40;;
59872;SDS011;50750;51.636;4.948;2023-08-06T00:45:29;2.20;;;1.60;;
59872;SDS011;50750;51.636;4.948;2023-08-06T00:47:59;2.20;;;1.60;;
59872;SDS011;50750;51.636;4.948;2023-08-06T00:50:26;2.90;;;1.80;;
59872;SDS011;50750;51.636;4.948;2023-08-06T00:52:53;2.60;;;1.50;;
59872;SDS011;50750;51.636;4.948;2023-08-06T00:55:20;2.50;;;1.40;;
59872;SDS011;50750;51.636;4.948;2023-08-06T00:57:46;2.70;;;1.80;;
59872;SDS011;50750;51.636;4.948;2023-08-06T01:00:14;2.20;;;1.40;;
59872;SDS011;50750;51.636;4.948;2023-08-06T01:02:43;3.00;;;1.70;;
59872;SDS011;50750;51.636;4.948;2023-08-06T01:05:09;2.30;;;1.40;;
59872;SDS011;50750;51.636;4.948;2023-08-06T01:10:27;2.30;;;1.50;;
59872;SDS011;50750;51.636;4.948;2023-08-06T01:16:10;2.30;;;1.40;;
59872;SDS011;50750;51.636;4.948;2023-08-06T01:18:37;2.50;;;1.60;;
59872;SDS011;50750;51.636;4.948;2023-08-06T01:21:05;2.70;;;1.50;;
59872;SDS011;50750;51.636;4.948;2023-08-06T01:23:31;2.20;;;1.40;;
59872;SDS011;50750;51.636;4.948;2023-08-06T01:28:43;3.00;;;1.60;;
59872;SDS011;50750;51.636;4.948;2023-08-06T01:31:11;2.90;;;1.50;;
59872;SDS011;50750;51.636;4.948;2023-08-06T01:33:45;2.70;;;1.50;;
59872;SDS011;50750;51.636;4.948;2023-08-06T01:36:15;2.50;;;1.50;;
59872;SDS011;50750;51.636;4.948;2023-08-06T01:38:44;2.30;;;1.50;;
59872;SDS011;50750;51.636;4.948;2023-08-06T01:41:11;2.50;;;1.60;;
59872;SDS011;50750;51.636;4.948;2023-08-06T01:43:37;2.30;;;1.50;;
59872;SDS011;50750;51.636;4.948;2023-08-06T01:46:04;2.30;;;1.50;;
59872;SDS011;50750;51.636;4.948;2023-08-06T01:48:30;2.30;;;1.60;;
59872;SDS011;50750;51.636;4.948;2023-08-06T01:50:56;2.20;;;1.60;;
59872;SDS011;50750;51.636;4.948;2023-08-06T01:53:22;2.20;;;1.40;;
59872;SDS011;50750;51.636;4.948;2023-08-06T01:55:49;2.40;;;1.40;;
59872;SDS011;50750;51.636;4.948;2023-08-06T01:58:15;2.20;;;1.30;;
59872;SDS011;50750;51.636;4.948;2023-08-06T02:00:42;2.40;;;1.50;;
59872;SDS011;50750;51.636;4.948;2023-08-06T02:03:08;2.60;;;1.60;;
59872;SDS011;50750;51.636;4.948;2023-08-06T02:05:34;2.60;;;1.50;;
59872;SDS011;50750;51.636;4.948;2023-08-06T02:08:01;2.40;;;1.50;;
59872;SDS011;50750;51.636;4.948;2023-08-06T02:10:27;2.30;;;1.60;;
59872;SDS011;50750;51.636;4.948;2023-08-06T02:12:54;2.40;;;1.50;;
59872;SDS011;50750;51.636;4.948;2023-08-06T02:15:20;2.80;;;1.40;;
59872;SDS011;50750;51.636;4.948;2023-08-06T02:17:46;2.70;;;1.60;;
59872;SDS011;50750;51.636;4.948;2023-08-06T02:20:13;2.40;;;1.60;;
59872;SDS011;50750;51.636;4.948;2023-08-06T02:22:39;2.70;;;1.60;;
59872;SDS011;50750;51.636;4.948;2023-08-06T02:25:06;2.30;;;1.40;;
59872;SDS011;50750;51.636;4.948;2023-08-06T02:27:32;2.40;;;1.50;;
59872;SDS011;50750;51.636;4.948;2023-08-06T02:29:59;2.20;;;1.20;;
59872;SDS011;50750;51.636;4.948;2023-08-06T02:32:25;2.20;;;1.30;;
59872;SDS011;50750;51.636;4.948;2023-08-06T02:34:52;2.40;;;1.50;;
59872;SDS011;50750;51.636;4.948;2023-08-06T02:37:18;2.40;;;1.60;;
59872;SDS011;50750;51.636;4.948;2023-08-06T02:39:45;2.40;;;1.30;;
59872;SDS011;50750;51.636;4.948;2023-08-06T02:42:11;2.20;;;1.40;;
59872;SDS011;50750;51.636;4.948;2023-08-06T02:44:37;2.30;;;1.50;;
59872;SDS011;50750;51.636;4.948;2023-08-06T02:47:04;2.10;;;1.40;;
59872;SDS011;50750;51.636;4.948;2023-08-06T02:49:31;2.40;;;1.50;;
59872;SDS011;50750;51.636;4.948;2023-08-06T02:51:57;2.30;;;1.50;;
59872;SDS011;50750;51.636;4.948;2023-08-06T02:54:23;2.80;;;1.60;;
59872;SDS011;50750;51.636;4.948;2023-08-06T02:56:50;2.10;;;1.40;;
59872;SDS011;50750;51.636;4.948;2023-08-06T02:59:17;2.50;;;1.40;;
59872;SDS011;50750;51.636;4.948;2023-08-06T03:01:43;2.50;;;1.70;;
59872;SDS011;50750;51.636;4.948;2023-08-06T03:04:09;2.50;;;1.40;;
59872;SDS011;50750;51.636;4.948;2023-08-06T03:06:36;2.90;;;1.50;;
59872;SDS011;50750;51.636;4.948;2023-08-06T03:09:02;2.90;;;1.70;;
59872;SDS011;50750;51.636;4.948;2023-08-06T03:11:28;2.30;;;1.50;;
59872;SDS011;50750;51.636;4.948;2023-08-06T03:13:55;2.40;;;1.30;;
59872;SDS011;50750;51.636;4.948;2023-08-06T03:16:21;2.40;;;1.40;;
59872;SDS011;50750;51.636;4.948;2023-08-06T03:18:47;2.90;;;1.60;;
59872;SDS011;50750;51.636;4.948;2023-08-06T03:21:14;2.50;;;1.60;;
59872;SDS011;50750;51.636;4.948;2023-08-06T03:23:40;2.60;;;1.50;;
59872;SDS011;50750;51.636;4.948;2023-08-06T03:26:06;2.50;;;1.50;;
59872;SDS011;50750;51.636;4.948;2023-08-06T03:28:33;2.40;;;1.50;;
59872;SDS011;50750;51.636;4.948;2023-08-06T03:31:00;2.10;;;1.30;;
59872;SDS011;50750;51.636;4.948;2023-08-06T03:33:27;1.80;;;1.20;;
59872;SDS011;50750;51.636;4.948;2023-08-06T03:35:54;2.20;;;1.40;;
59872;SDS011;50750;51.636;4.948;2023-08-06T03:38:20;2.40;;;1.40;;
59872;SDS011;50750;51.636;4.948;2023-08-06T03:40:47;2.70;;;1.50;;
59872;SDS011;50750;51.636;4.948;2023-08-06T03:43:13;2.60;;;1.50;;
59872;SDS011;50750;51.636;4.948;2023-08-06T03:45:40;2.20;;;1.40;;
59872;SDS011;50750;51.636;4.948;2023-08-06T03:48:07;1.90;;;1.30;;
59872;SDS011;50750;51.636;4.948;2023-08-06T03:50:34;2.50;;;1.40;;
59872;SDS011;50750;51.636;4.948;2023-08-06T03:53:01;2.90;;;1.50;;
59872;SDS011;50750;51.636;4.948;2023-08-06T03:55:28;2.20;;;1.50;;
59872;SDS011;50750;51.636;4.948;2023-08-06T03:57:54;2.10;;;1.20;;
59872;SDS011;50750;51.636;4.948;2023-08-06T04:00:21;2.90;;;1.40;;
59872;SDS011;50750;51.636;4.948;2023-08-06T04:02:47;2.30;;;1.50;;
59872;SDS011;50750;51.636;4.948;2023-08-06T04:05:15;2.80;;;1.20;;
59872;SDS011;50750;51.636;4.948;2023-08-06T04:07:42;2.70;;;1.50;;
59872;SDS011;50750;51.636;4.948;2023-08-06T04:10:08;2.80;;;1.50;;
59872;SDS011;50750;51.636;4.948;2023-08-06T04:12:35;2.80;;;1.40;;
59872;SDS011;50750;51.636;4.948;2023-08-06T04:15:05;2.30;;;1.30;;
59872;SDS011;50750;51.636;4.948;2023-08-06T04:17:32;2.30;;;1.40;;
59872;SDS011;50750;51.636;4.948;2023-08-06T04:19:59;2.30;;;1.40;;
59872;SDS011;50750;51.636;4.948;2023-08-06T04:22:25;2.30;;;1.50;;
59872;SDS011;50750;51.636;4.948;2023-08-06T04:24:51;2.00;;;1.30;;
59872;SDS011;50750;51.636;4.948;2023-08-06T04:27:18;2.40;;;1.40;;
59872;SDS011;50750;51.636;4.948;2023-08-06T04:29:45;2.00;;;1.30;;
59872;SDS011;50750;51.636;4.948;2023-08-06T04:32:11;2.20;;;1.20;;
59872;SDS011;50750;51.636;4.948;2023-08-06T04:34:39;2.40;;;1.40;;
59872;SDS011;50750;51.636;4.948;2023-08-06T04:37:05;2.50;;;1.50;;
59872;SDS011;50750;51.636;4.948;2023-08-06T04:39:31;2.20;;;1.30;;
59872;SDS011;50750;51.636;4.948;2023-08-06T04:41:58;2.20;;;1.30;;
59872;SDS011;50750;51.636;4.948;2023-08-06T04:44:24;2.70;;;1.50;;
59872;SDS011;50750;51.636;4.948;2023-08-06T04:46:51;2.00;;;1.20;;
59872;SDS011;50750;51.636;4.948;2023-08-06T04:49:18;2.40;;;1.40;;
59872;SDS011;50750;51.636;4.948;2023-08-06T04:51:46;2.50;;;1.70;;
59872;SDS011;50750;51.636;4.948;2023-08-06T04:54:13;2.20;;;1.40;;
59872;SDS011;50750;51.636;4.948;2023-08-06T04:56:39;2.60;;;1.40;;
59872;SDS011;50750;51.636;4.948;2023-08-06T04:59:06;2.40;;;1.30;;
59872;SDS011;50750;51.636;4.948;2023-08-06T05:01:32;2.20;;;1.30;;
59872;SDS011;50750;51.636;4.948;2023-08-06T05:03:59;3.00;;;1.30;;
59872;SDS011;50750;51.636;4.948;2023-08-06T05:06:25;2.20;;;1.40;;
59872;SDS011;50750;51.636;4.948;2023-08-06T05:08:51;2.10;;;1.30;;
59872;SDS011;50750;51.636;4.948;2023-08-06T05:11:18;2.30;;;1.40;;
59872;SDS011;50750;51.636;4.948;2023-08-06T05:13:44;2.50;;;1.20;;
59872;SDS011;50750;51.636;4.948;2023-08-06T05:16:10;2.10;;;1.20;;
59872;SDS011;50750;51.636;4.948;2023-08-06T05:18:37;2.50;;;1.40;;
59872;SDS011;50750;51.636;4.948;2023-08-06T05:21:03;2.20;;;1.20;;
59872;SDS011;50750;51.636;4.948;2023-08-06T05:23:30;2.50;;;1.40;;
59872;SDS011;50750;51.636;4.948;2023-08-06T05:25:56;2.30;;;1.20;;
59872;SDS011;50750;51.636;4.948;2023-08-06T05:28:22;2.20;;;1.20;;
59872;SDS011;50750;51.636;4.948;2023-08-06T05:30:49;2.10;;;1.00;;
59872;SDS011;50750;51.636;4.948;2023-08-06T05:33:15;2.20;;;1.10;;
59872;SDS011;50750;51.636;4.948;2023-08-06T05:35:42;2.20;;;1.50;;
59872;SDS011;50750;51.636;4.948;2023-08-06T05:38:08;1.90;;;1.20;;
59872;SDS011;50750;51.636;4.948;2023-08-06T05:40:34;2.10;;;1.20;;
59872;SDS011;50750;51.636;4.948;2023-08-06T05:43:01;2.20;;;1.30;;
59872;SDS011;50750;51.636;4.948;2023-08-06T05:45:28;1.80;;;1.10;;
59872;SDS011;50750;51.636;4.948;2023-08-06T05:47:54;2.10;;;1.20;;
59872;SDS011;50750;51.636;4.948;2023-08-06T05:52:50;2.10;;;1.20;;
59872;SDS011;50750;51.636;4.948;2023-08-06T05:55:18;2.40;;;1.20;;
59872;SDS011;50750;51.636;4.948;2023-08-06T05:57:45;3.80;;;1.40;;
59872;SDS011;50750;51.636;4.948;2023-08-06T06:00:12;2.10;;;1.20;;
59872;SDS011;50750;51.636;4.948;2023-08-06T06:02:38;2.10;;;1.20;;
59872;SDS011;50750;51.636;4.948;2023-08-06T06:05:04;2.30;;;1.40;;
59872;SDS011;50750;51.636;4.948;2023-08-06T06:07:31;2.90;;;1.40;;
59872;SDS011;50750;51.636;4.948;2023-08-06T06:09:57;2.40;;;1.30;;
59872;SDS011;50750;51.636;4.948;2023-08-06T06:12:24;2.80;;;1.40;;
59872;SDS011;50750;51.636;4.948;2023-08-06T06:14:52;2.20;;;1.30;;
59872;SDS011;50750;51.636;4.948;2023-08-06T06:17:18;2.20;;;1.20;;
59872;SDS011;50750;51.636;4.948;2023-08-06T06:19:45;1.90;;;1.20;;
59872;SDS011;50750;51.636;4.948;2023-08-06T06:22:11;3.20;;;1.30;;
59872;SDS011;50750;51.636;4.948;2023-08-06T06:24:38;2.10;;;1.30;;
59872;SDS011;50750;51.636;4.948;2023-08-06T06:27:04;2.00;;;1.10;;
59872;SDS011;50750;51.636;4.948;2023-08-06T06:29:31;2.40;;;1.30;;
59872;SDS011;50750;51.636;4.948;2023-08-06T06:31:57;2.60;;;1.50;;
59872;SDS011;50750;51.636;4.948;2023-08-06T06:34:23;2.60;;;1.40;;
59872;SDS011;50750;51.636;4.948;2023-08-06T06:36:50;2.90;;;1.40;;
59872;SDS011;50750;51.636;4.948;2023-08-06T06:39:17;3.00;;;1.40;;
59872;SDS011;50750;51.636;4.948;2023-08-06T06:41:43;2.60;;;1.40;;
59872;SDS011;50750;51.636;4.948;2023-08-06T06:44:10;2.50;;;1.50;;
59872;SDS011;50750;51.636;4.948;2023-08-06T06:46:37;3.50;;;1.40;;
59872;SDS011;50750;51.636;4.948;2023-08-06T06:49:03;3.10;;;1.50;;
59872;SDS011;50750;51.636;4.948;2023-08-06T06:51:29;2.60;;;1.40;;
59872;SDS011;50750;51.636;4.948;2023-08-06T06:53:57;3.10;;;1.90;;
59872;SDS011;50750;51.636;4.948;2023-08-06T06:56:24;2.30;;;1.50;;
59872;SDS011;50750;51.636;4.948;2023-08-06T06:58:50;2.50;;;1.30;;
59872;SDS011;50750;51.636;4.948;2023-08-06T07:01:17;3.00;;;1.70;;
59872;SDS011;50750;51.636;4.948;2023-08-06T07:03:43;2.50;;;1.40;;
59872;SDS011;50750;51.636;4.948;2023-08-06T07:06:09;3.20;;;1.80;;
59872;SDS011;50750;51.636;4.948;2023-08-06T07:08:36;2.50;;;1.40;;
59872;SDS011;50750;51.636;4.948;2023-08-06T07:11:03;3.50;;;1.70;;
59872;SDS011;50750;51.636;4.948;2023-08-06T07:13:30;2.70;;;1.40;;
59872;SDS011;50750;51.636;4.948;2023-08-06T07:15:56;2.70;;;1.60;;
59872;SDS011;50750;51.636;4.948;2023-08-06T07:18:23;2.90;;;1.50;;
59872;SDS011;50750;51.636;4.948;2023-08-06T07:20:50;3.00;;;1.50;;
59872;SDS011;50750;51.636;4.948;2023-08-06T07:23:19;2.70;;;1.40;;
59872;SDS011;50750;51.636;4.948;2023-08-06T07:25:47;3.70;;;1.50;;
59872;SDS011;50750;51.636;4.948;2023-08-06T07:28:14;2.60;;;1.20;;
59872;SDS011;50750;51.636;4.948;2023-08-06T07:30:41;2.60;;;1.50;;
59872;SDS011;50750;51.636;4.948;2023-08-06T07:33:09;3.30;;;1.60;;
59872;SDS011;50750;51.636;4.948;2023-08-06T07:35:36;2.50;;;1.50;;
59872;SDS011;50750;51.636;4.948;2023-08-06T07:38:02;3.50;;;1.50;;
59872;SDS011;50750;51.636;4.948;2023-08-06T07:40:29;3.30;;;1.40;;
59872;SDS011;50750;51.636;4.948;2023-08-06T07:42:55;3.60;;;1.60;;
59872;SDS011;50750;51.636;4.948;2023-08-06T07:45:21;3.40;;;1.60;;
59872;SDS011;50750;51.636;4.948;2023-08-06T07:47:48;3.10;;;1.50;;
59872;SDS011;50750;51.636;4.948;2023-08-06T07:50:14;2.30;;;1.40;;
59872;SDS011;50750;51.636;4.948;2023-08-06T07:52:40;2.30;;;1.30;;
59872;SDS011;50750;51.636;4.948;2023-08-06T07:55:07;2.90;;;1.40;;
59872;SDS011;50750;51.636;4.948;2023-08-06T07:57:34;2.90;;;1.30;;
59872;SDS011;50750;51.636;4.948;2023-08-06T08:00:00;3.00;;;1.40;;
59872;SDS011;50750;51.636;4.948;2023-08-06T08:02:27;4.10;;;1.70;;
59872;SDS011;50750;51.636;4.948;2023-08-06T08:04:54;3.00;;;1.50;;
59872;SDS011;50750;51.636;4.948;2023-08-06T08:07:20;2.90;;;1.50;;
59872;SDS011;50750;51.636;4.948;2023-08-06T08:09:46;3.10;;;1.40;;
59872;SDS011;50750;51.636;4.948;2023-08-06T08:12:14;3.90;;;1.30;;
59872;SDS011;50750;51.636;4.948;2023-08-06T08:14:41;2.50;;;1.30;;
59872;SDS011;50750;51.636;4.948;2023-08-06T08:17:07;2.50;;;1.40;;
59872;SDS011;50750;51.636;4.948;2023-08-06T08:19:33;2.60;;;1.30;;
59872;SDS011;50750;51.636;4.948;2023-08-06T08:22:00;3.40;;;1.50;;
59872;SDS011;50750;51.636;4.948;2023-08-06T08:24:27;2.10;;;1.20;;
59872;SDS011;50750;51.636;4.948;2023-08-06T08:26:53;2.40;;;1.50;;
59872;SDS011;50750;51.636;4.948;2023-08-06T08:29:19;2.30;;;1.30;;
59872;SDS011;50750;51.636;4.948;2023-08-06T08:31:47;2.80;;;1.30;;
59872;SDS011;50750;51.636;4.948;2023-08-06T08:34:15;3.00;;;1.30;;
59872;SDS011;50750;51.636;4.948;2023-08-06T08:36:42;3.10;;;1.50;;
59872;SDS011;50750;51.636;4.948;2023-08-06T08:39:09;3.10;;;1.50;;
59872;SDS011;50750;51.636;4.948;2023-08-06T08:41:38;3.80;;;1.50;;
59872;SDS011;50750;51.636;4.948;2023-08-06T08:44:09;3.10;;;1.50;;
59872;SDS011;50750;51.636;4.948;2023-08-06T08:46:37;2.60;;;1.30;;
59872;SDS011;50750;51.636;4.948;2023-08-06T08:51:33;2.60;;;1.20;;
59872;SDS011;50750;51.636;4.948;2023-08-06T08:54:03;2.70;;;1.50;;
59872;SDS011;50750;51.636;4.948;2023-08-06T08:56:31;4.00;;;1.50;;
59872;SDS011;50750;51.636;4.948;2023-08-06T08:58:57;2.40;;;1.40;;
59872;SDS011;50750;51.636;4.948;2023-08-06T09:01:25;2.90;;;1.40;;
59872;SDS011;50750;51.636;4.948;2023-08-06T09:03:54;3.20;;;1.40;;
59872;SDS011;50750;51.636;4.948;2023-08-06T09:06:21;2.80;;;1.30;;
59872;SDS011;50750;51.636;4.948;2023-08-06T09:09:10;3.20;;;1.50;;
59872;SDS011;50750;51.636;4.948;2023-08-06T09:11:42;2.60;;;1.40;;
59872;SDS011;50750;51.636;4.948;2023-08-06T09:14:10;3.50;;;1.40;;
59872;SDS011;50750;51.636;4.948;2023-08-06T09:16:37;2.80;;;1.40;;
59872;SDS011;50750;51.636;4.948;2023-08-06T09:19:10;2.70;;;1.50;;
59872;SDS011;50750;51.636;4.948;2023-08-06T09:21:45;3.30;;;1.40;;
59872;SDS011;50750;51.636;4.948;2023-08-06T09:24:14;2.30;;;1.20;;
59872;SDS011;50750;51.636;4.948;2023-08-06T09:26:43;2.60;;;1.20;;
59872;SDS011;50750;51.636;4.948;2023-08-06T09:29:11;2.70;;;1.40;;
59872;SDS011;50750;51.636;4.948;2023-08-06T09:31:41;2.30;;;1.10;;
59872;SDS011;50750;51.636;4.948;2023-08-06T09:34:16;2.50;;;1.30;;
59872;SDS011;50750;51.636;4.948;2023-08-06T09:36:43;2.50;;;1.40;;
59872;SDS011;50750;51.636;4.948;2023-08-06T09:39:16;2.60;;;1.30;;
59872;SDS011;50750;51.636;4.948;2023-08-06T09:41:43;2.50;;;1.30;;
59872;SDS011;50750;51.636;4.948;2023-08-06T09:46:48;2.70;;;1.40;;
59872;SDS011;50750;51.636;4.948;2023-08-06T09:49:15;2.40;;;1.20;;
59872;SDS011;50750;51.636;4.948;2023-08-06T09:51:44;3.00;;;1.30;;
59872;SDS011;50750;51.636;4.948;2023-08-06T09:54:14;2.80;;;1.30;;
59872;SDS011;50750;51.636;4.948;2023-08-06T09:56:42;2.50;;;1.20;;
59872;SDS011;50750;51.636;4.948;2023-08-06T09:59:09;3.70;;;1.40;;
59872;SDS011;50750;51.636;4.948;2023-08-06T10:01:37;3.10;;;1.40;;
59872;SDS011;50750;51.636;4.948;2023-08-06T10:04:04;2.30;;;1.20;;
59872;SDS011;50750;51.636;4.948;2023-08-06T10:06:33;3.20;;;1.30;;
59872;SDS011;50750;51.636;4.948;2023-08-06T10:09:04;4.10;;;1.40;;
59872;SDS011;50750;51.636;4.948;2023-08-06T10:11:31;3.20;;;1.20;;
59872;SDS011;50750;51.636;4.948;2023-08-06T10:13:59;2.40;;;1.30;;
59872;SDS011;50750;51.636;4.948;2023-08-06T10:16:30;3.40;;;1.60;;
59872;SDS011;50750;51.636;4.948;2023-08-06T10:18:57;2.70;;;1.40;;
59872;SDS011;50750;51.636;4.948;2023-08-06T10:21:24;3.40;;;1.30;;
59872;SDS011;50750;51.636;4.948;2023-08-06T10:23:54;2.40;;;1.20;;
59872;SDS011;50750;51.636;4.948;2023-08-06T10:26:20;2.40;;;1.30;;
59872;SDS011;50750;51.636;4.948;2023-08-06T10:28:51;2.40;;;1.30;;
59872;SDS011;50750;51.636;4.948;2023-08-06T10:31:18;2.20;;;1.20;;
59872;SDS011;50750;51.636;4.948;2023-08-06T10:33:45;2.20;;;1.10;;
59872;SDS011;50750;51.636;4.948;2023-08-06T10:36:13;2.20;;;1.30;;
59872;SDS011;50750;51.636;4.948;2023-08-06T10:38:44;2.30;;;1.20;;
59872;SDS011;50750;51.636;4.948;2023-08-06T10:41:28;3.70;;;1.50;;
59872;SDS011;50750;51.636;4.948;2023-08-06T10:44:07;2.30;;;1.30;;
59872;SDS011;50750;51.636;4.948;2023-08-06T10:46:35;2.50;;;1.30;;
59872;SDS011;50750;51.636;4.948;2023-08-06T10:49:02;3.20;;;1.30;;
59872;SDS011;50750;51.636;4.948;2023-08-06T10:51:30;3.10;;;1.30;;
59872;SDS011;50750;51.636;4.948;2023-08-06T10:53:56;2.80;;;1.30;;
59872;SDS011;50750;51.636;4.948;2023-08-06T10:56:24;2.60;;;1.40;;
59872;SDS011;50750;51.636;4.948;2023-08-06T10:58:54;1.90;;;1.00;;
59872;SDS011;50750;51.636;4.948;2023-08-06T11:01:24;2.30;;;1.20;;
59872;SDS011;50750;51.636;4.948;2023-08-06T11:03:55;3.20;;;1.50;;
59872;SDS011;50750;51.636;4.948;2023-08-06T11:06:21;2.30;;;1.20;;
59872;SDS011;50750;51.636;4.948;2023-08-06T11:08:50;2.80;;;1.30;;
59872;SDS011;50750;51.636;4.948;2023-08-06T11:11:17;2.90;;;1.30;;
59872;SDS011;50750;51.636;4.948;2023-08-06T11:13:44;2.50;;;1.20;;
59872;SDS011;50750;51.636;4.948;2023-08-06T11:16:16;2.10;;;1.20;;
59872;SDS011;50750;51.636;4.948;2023-08-06T11:18:44;2.70;;;1.10;;
59872;SDS011;50750;51.636;4.948;2023-08-06T11:21:11;2.90;;;1.20;;
59872;SDS011;50750;51.636;4.948;2023-08-06T11:23:38;3.50;;;1.30;;
59872;SDS011;50750;51.636;4.948;2023-08-06T11:26:05;2.90;;;1.20;;
59872;SDS011;50750;51.636;4.948;2023-08-06T11:28:31;2.50;;;1.20;;
59872;SDS011;50750;51.636;4.948;2023-08-06T11:30:58;2.50;;;1.20;;
59872;SDS011;50750;51.636;4.948;2023-08-06T11:35:54;2.90;;;1.10;;
59872;SDS011;50750;51.636;4.948;2023-08-06T11:38:24;2.80;;;1.50;;
59872;SDS011;50750;51.636;4.948;2023-08-06T11:40:52;2.20;;;1.10;;
59872;SDS011;50750;51.636;4.948;2023-08-06T11:43:19;2.90;;;1.30;;
59872;SDS011;50750;51.636;4.948;2023-08-06T11:45:51;2.70;;;1.30;;
59872;SDS011;50750;51.636;4.948;2023-08-06T11:48:20;3.00;;;1.20;;
59872;SDS011;50750;51.636;4.948;2023-08-06T11:50:46;2.40;;;1.20;;
59872;SDS011;50750;51.636;4.948;2023-08-06T11:53:13;3.00;;;1.20;;
59872;SDS011;50750;51.636;4.948;2023-08-06T11:55:40;3.00;;;1.10;;
59872;SDS011;50750;51.636;4.948;2023-08-06T11:58:09;2.60;;;1.00;;
59872;SDS011;50750;51.636;4.948;2023-08-06T12:00:36;3.20;;;1.00;;
59872;SDS011;50750;51.636;4.948;2023-08-06T12:03:04;1.80;;;0.90;;
59872;SDS011;50750;51.636;4.948;2023-08-06T12:05:31;2.60;;;1.10;;
59872;SDS011;50750;51.636;4.948;2023-08-06T12:08:02;2.20;;;1.20;;
59872;SDS011;50750;51.636;4.948;2023-08-06T12:10:30;3.20;;;1.50;;
59872;SDS011;50750;51.636;4.948;2023-08-06T12:12:57;2.50;;;1.10;;
59872;SDS011;50750;51.636;4.948;2023-08-06T12:15:24;2.80;;;1.10;;
59872;SDS011;50750;51.636;4.948;2023-08-06T12:17:50;2.20;;;1.10;;
59872;SDS011;50750;51.636;4.948;2023-08-06T12:20:17;2.60;;;1.30;;
59872;SDS011;50750;51.636;4.948;2023-08-06T12:22:44;2.20;;;1.10;;
59872;SDS011;50750;51.636;4.948;2023-08-06T12:25:12;2.40;;;1.00;;
59872;SDS011;50750;51.636;4.948;2023-08-06T12:27:40;2.10;;;1.00;;
59872;SDS011;50750;51.636;4.948;2023-08-06T12:30:08;3.00;;;1.30;;
59872;SDS011;50750;51.636;4.948;2023-08-06T12:32:35;2.50;;;1.00;;
59872;SDS011;50750;51.636;4.948;2023-08-06T12:35:02;3.00;;;1.10;;
59872;SDS011;50750;51.636;4.948;2023-08-06T12:37:30;2.40;;;1.00;;
59872;SDS011;50750;51.636;4.948;2023-08-06T12:39:57;2.60;;;1.00;;
59872;SDS011;50750;51.636;4.948;2023-08-06T12:42:23;2.20;;;1.00;;
59872;SDS011;50750;51.636;4.948;2023-08-06T12:44:51;2.40;;;1.00;;
59872;SDS011;50750;51.636;4.948;2023-08-06T12:47:18;2.50;;;1.00;;
59872;SDS011;50750;51.636;4.948;2023-08-06T12:49:44;2.60;;;1.40;;
59872;SDS011;50750;51.636;4.948;2023-08-06T12:52:11;3.00;;;1.10;;
59872;SDS011;50750;51.636;4.948;2023-08-06T12:57:07;3.20;;;1.10;;
59872;SDS011;50750;51.636;4.948;2023-08-06T12:59:33;2.30;;;1.10;;
59872;SDS011;50750;51.636;4.948;2023-08-06T13:02:03;2.00;;;1.00;;
59872;SDS011;50750;51.636;4.948;2023-08-06T13:04:29;2.90;;;1.20;;
59872;SDS011;50750;51.636;4.948;2023-08-06T13:06:56;3.50;;;1.30;;
59872;SDS011;50750;51.636;4.948;2023-08-06T13:09:23;2.70;;;0.90;;
59872;SDS011;50750;51.636;4.948;2023-08-06T13:11:49;5.10;;;1.40;;
59872;SDS011;50750;51.636;4.948;2023-08-06T13:14:16;2.30;;;0.90;;
59872;SDS011;50750;51.636;4.948;2023-08-06T13:16:44;3.30;;;1.00;;
59872;SDS011;50750;51.636;4.948;2023-08-06T13:19:11;2.20;;;0.90;;
59872;SDS011;50750;51.636;4.948;2023-08-06T13:24:08;2.00;;;1.00;;
59872;SDS011;50750;51.636;4.948;2023-08-06T13:26:35;2.10;;;0.90;;
59872;SDS011;50750;51.636;4.948;2023-08-06T13:29:01;2.90;;;1.00;;
59872;SDS011;50750;51.636;4.948;2023-08-06T13:31:28;2.20;;;1.10;;
59872;SDS011;50750;51.636;4.948;2023-08-06T13:33:55;2.80;;;1.10;;
59872;SDS011;50750;51.636;4.948;2023-08-06T13:36:27;2.40;;;1.00;;
59872;SDS011;50750;51.636;4.948;2023-08-06T13:38:53;1.90;;;0.90;;
59872;SDS011;50750;51.636;4.948;2023-08-06T13:41:20;2.00;;;0.90;;
59872;SDS011;50750;51.636;4.948;2023-08-06T13:43:47;2.50;;;1.10;;
59872;SDS011;50750;51.636;4.948;2023-08-06T13:46:13;2.30;;;1.10;;
59872;SDS011;50750;51.636;4.948;2023-08-06T13:48:44;1.70;;;0.90;;
59872;SDS011;50750;51.636;4.948;2023-08-06T13:51:11;1.70;;;0.90;;
59872;SDS011;50750;51.636;4.948;2023-08-06T13:53:39;2.30;;;1.00;;
59872;SDS011;50750;51.636;4.948;2023-08-06T13:56:06;2.90;;;0.80;;
59872;SDS011;50750;51.636;4.948;2023-08-06T13:58:33;2.60;;;0.90;;
59872;SDS011;50750;51.636;4.948;2023-08-06T14:00:59;2.60;;;0.90;;
59872;SDS011;50750;51.636;4.948;2023-08-06T14:03:26;2.20;;;1.00;;
59872;SDS011;50750;51.636;4.948;2023-08-06T14:05:52;2.70;;;1.20;;
59872;SDS011;50750;51.636;4.948;2023-08-06T14:08:21;2.30;;;0.90;;
59872;SDS011;50750;51.636;4.948;2023-08-06T14:10:49;2.10;;;0.80;;
59872;SDS011;50750;51.636;4.948;2023-08-06T14:13:16;2.40;;;0.90;;
59872;SDS011;50750;51.636;4.948;2023-08-06T14:15:42;1.60;;;0.80;;
59872;SDS011;50750;51.636;4.948;2023-08-06T14:18:15;2.60;;;0.90;;
59872;SDS011;50750;51.636;4.948;2023-08-06T14:20:43;2.60;;;0.80;;
59872;SDS011;50750;51.636;4.948;2023-08-06T14:23:10;1.80;;;0.80;;
59872;SDS011;50750;51.636;4.948;2023-08-06T14:25:37;3.50;;;1.10;;
59872;SDS011;50750;51.636;4.948;2023-08-06T14:28:03;2.40;;;0.80;;
59872;SDS011;50750;51.636;4.948;2023-08-06T14:30:32;1.90;;;0.80;;
59872;SDS011;50750;51.636;4.948;2023-08-06T14:32:59;2.40;;;0.90;;
59872;SDS011;50750;51.636;4.948;2023-08-06T14:35:26;1.90;;;0.80;;
59872;SDS011;50750;51.636;4.948;2023-08-06T14:37:53;2.70;;;0.80;;
59872;SDS011;50750;51.636;4.948;2023-08-06T14:40:20;2.50;;;0.70;;
59872;SDS011;50750;51.636;4.948;2023-08-06T14:42:46;3.70;;;1.00;;
59872;SDS011;50750;51.636;4.948;2023-08-06T14:45:12;3.60;;;0.90;;
59872;SDS011;50750;51.636;4.948;2023-08-06T14:47:39;3.30;;;0.60;;
59872;SDS011;50750;51.636;4.948;2023-08-06T14:50:06;3.50;;;0.90;;
59872;SDS011;50750;51.636;4.948;2023-08-06T14:52:32;2.70;;;0.70;;
59872;SDS011;50750;51.636;4.948;2023-08-06T14:55:00;3.00;;;0.90;;
59872;SDS011;50750;51.636;4.948;2023-08-06T14:57:28;3.50;;;1.00;;
59872;SDS011;50750;51.636;4.948;2023-08-06T14:59:54;3.10;;;0.90;;
59872;SDS011;50750;51.636;4.948;2023-08-06T15:02:21;1.70;;;0.60;;
59872;SDS011;50750;51.636;4.948;2023-08-06T15:04:48;2.50;;;1.00;;
59872;SDS011;50750;51.636;4.948;2023-08-06T15:07:14;1.90;;;0.70;;
59872;SDS011;50750;51.636;4.948;2023-08-06T15:09:41;1.90;;;0.50;;
59872;SDS011;50750;51.636;4.948;2023-08-06T15:12:07;1.90;;;0.70;;